sensor_id;sensor_type;location;lat;lon;timestamp;pressure;altitude;pressure_sealevel;temperature;humidity
65276;BME280;51875;49.994;14.052;2023-04-19T00:00:54;98906.56;;;10.41;100.00
65276;BME280;51875;49.994;14.052;2023-04-19T00:02:11;98901.38;;;10.36;100.00
65276;BME280;51875;49.994;14.052;2023-04-19T00:03:27;98904.19;;;10.27;100.00
65276;BME280;51875;49.994;14.052;2023-04-19T00:04:44;98906.22;;;10.11;100.00
65276;BME280;51875;49.994;14.052;2023-04-19T00:06:00;98906.22;;;10.11;100.00
65276;BME280;51875;49.994;14.052;2023-04-19T00:07:16;98893.50;;;9.92;100.00
65276;BME280;51875;49.994;14.052;2023-04-19T00:08:33;98896.69;;;10.08;100.00
65276;BME280;51875;49.994;14.052;2023-04-19T00:09:48;98900.94;;;10.14;100.00
65276;BME280;51875;49.994;14.052;2023-04-19T00:11:04;98897.97;;;10.32;100.00
65276;BME280;51875;49.994;14.052;2023-04-19T00:12:19;98890.38;;;10.20;100.00
65276;BME280;51875;49.994;14.052;2023-04-19T00:13:35;98888.53;;;10.25;100.00
65276;BME280;51875;49.994;14.052;2023-04-19T00:14:51;98892.94;;;10.22;100.00
65276;BME280;51875;49.994;14.052;2023-04-19T00:16:06;98891.91;;;10.30;100.00
65276;BME280;51875;49.994;14.052;2023-04-19T00:17:22;98892.63;;;10.39;100.00
65276;BME280;51875;49.994;14.052;2023-04-19T00:18:38;98893.59;;;10.33;100.00
65276;BME280;51875;49.994;14.052;2023-04-19T00:19:53;98885.63;;;10.41;100.00
65276;BME280;51875;49.994;14.052;2023-04-19T00:21:09;98892.50;;;10.45;100.00
65276;BME280;51875;49.994;14.052;2023-04-19T00:22:25;98884.63;;;10.47;100.00
65276;BME280;51875;49.994;14.052;2023-04-19T00:23:41;98884.75;;;9.93;100.00
65276;BME280;51875;49.994;14.052;2023-04-19T00:24:56;98881.81;;;10.10;100.00
65276;BME280;51875;49.994;14.052;2023-04-19T00:26:12;98880.22;;;10.01;100.00
65276;BME280;51875;49.994;14.052;2023-04-19T00:27:30;98878.78;;;9.86;100.00
65276;BME280;51875;49.994;14.052;2023-04-19T00:28:45;98882.41;;;10.25;100.00
65276;BME280;51875;49.994;14.052;2023-04-19T00:30:01;98873.47;;;10.37;100.00
65276;BME280;51875;49.994;14.052;2023-04-19T00:31:16;98878.06;;;10.25;100.00
65276;BME280;51875;49.994;14.052;2023-04-19T00:32:32;98876.78;;;10.48;100.00
65276;BME280;51875;49.994;14.052;2023-04-19T00:33:48;98868.94;;;9.99;100.00
65276;BME280;51875;49.994;14.052;2023-04-19T00:35:03;98868.38;;;10.29;100.00
65276;BME280;51875;49.994;14.052;2023-04-19T00:36:19;98864.91;;;10.28;100.00
65276;BME280;51875;49.994;14.052;2023-04-19T00:37:35;98860.94;;;10.07;100.00
65276;BME280;51875;49.994;14.052;2023-04-19T00:38:50;98865.78;;;10.27;100.00
65276;BME280;51875;49.994;14.052;2023-04-19T00:40:06;98855.09;;;10.41;100.00
65276;BME280;51875;49.994;14.052;2023-04-19T00:41:22;98857.34;;;10.14;100.00
65276;BME280;51875;49.994;14.052;2023-04-19T00:42:38;98865.72;;;10.30;100.00
65276;BME280;51875;49.994;14.052;2023-04-19T00:43:53;98863.81;;;10.39;100.00
65276;BME280;51875;49.994;14.052;2023-04-19T00:45:10;98860.13;;;10.51;100.00
65276;BME280;51875;49.994;14.052;2023-04-19T00:46:26;98854.06;;;10.47;100.00
65276;BME280;51875;49.994;14.052;2023-04-19T00:47:42;98857.84;;;10.32;100.00
65276;BME280;51875;49.994;14.052;2023-04-19T00:48:58;98854.50;;;10.24;100.00
65276;BME280;51875;49.994;14.052;2023-04-19T00:50:13;98854.44;;;9.83;100.00
65276;BME280;51875;49.994;14.052;2023-04-19T00:51:29;98851.88;;;10.25;100.00
65276;BME280;51875;49.994;14.052;2023-04-19T00:52:45;98849.19;;;10.28;100.00
65276;BME280;51875;49.994;14.052;2023-04-19T00:54:02;98848.78;;;10.04;100.00
65276;BME280;51875;49.994;14.052;2023-04-19T00:55:17;98839.63;;;10.27;100.00
65276;BME280;51875;49.994;14.052;2023-04-19T00:56:34;98840.28;;;10.39;100.00
65276;BME280;51875;49.994;14.052;2023-04-19T00:57:50;98843.03;;;10.31;100.00
65276;BME280;51875;49.994;14.052;2023-04-19T00:59:06;98840.69;;;10.18;100.00
65276;BME280;51875;49.994;14.052;2023-04-19T01:00:22;98841.50;;;10.21;100.00
65276;BME280;51875;49.994;14.052;2023-04-19T01:01:37;98834.47;;;10.24;100.00
65276;BME280;51875;49.994;14.052;2023-04-19T01:02:53;98836.50;;;10.10;100.00
65276;BME280;51875;49.994;14.052;2023-04-19T01:04:10;98834.53;;;10.20;100.00
65276;BME280;51875;49.994;14.052;2023-04-19T01:05:25;98830.88;;;10.28;100.00
65276;BME280;51875;49.994;14.052;2023-04-19T01:06:41;98830.84;;;10.30;100.00
65276;BME280;51875;49.994;14.052;2023-04-19T01:07:57;98831.59;;;9.91;100.00
65276;BME280;51875;49.994;14.052;2023-04-19T01:09:12;98826.59;;;10.24;100.00
65276;BME280;51875;49.994;14.052;2023-04-19T01:10:28;98829.16;;;10.27;100.00
65276;BME280;51875;49.994;14.052;2023-04-19T01:11:44;98824.69;;;10.32;100.00
65276;BME280;51875;49.994;14.052;2023-04-19T01:12:59;98828.78;;;10.48;100.00
65276;BME280;51875;49.994;14.052;2023-04-19T01:14:15;98823.91;;;10.29;100.00
65276;BME280;51875;49.994;14.052;2023-04-19T01:15:31;98827.53;;;10.22;100.00
65276;BME280;51875;49.994;14.052;2023-04-19T01:16:46;98831.69;;;10.30;100.00
65276;BME280;51875;49.994;14.052;2023-04-19T01:18:02;98824.97;;;10.20;100.00
65276;BME280;51875;49.994;14.052;2023-04-19T01:19:17;98823.16;;;10.22;100.00
65276;BME280;51875;49.994;14.052;2023-04-19T01:20:33;98819.19;;;10.02;100.00
65276;BME280;51875;49.994;14.052;2023-04-19T01:21:48;98826.69;;;10.21;100.00
65276;BME280;51875;49.994;14.052;2023-04-19T01:23:04;98816.81;;;10.32;100.00
65276;BME280;51875;49.994;14.052;2023-04-19T01:24:20;98815.34;;;10.19;100.00
65276;BME280;51875;49.994;14.052;2023-04-19T01:25:35;98817.22;;;10.12;100.00
65276;BME280;51875;49.994;14.052;2023-04-19T01:26:52;98810.66;;;10.37;100.00
65276;BME280;51875;49.994;14.052;2023-04-19T01:28:07;98812.50;;;10.31;100.00
65276;BME280;51875;49.994;14.052;2023-04-19T01:29:23;98809.03;;;10.29;100.00
65276;BME280;51875;49.994;14.052;2023-04-19T01:30:38;98811.88;;;10.18;100.00
65276;BME280;51875;49.994;14.052;2023-04-19T01:31:54;98805.59;;;10.27;100.00
65276;BME280;51875;49.994;14.052;2023-04-19T01:33:09;98805.59;;;10.27;100.00
65276;BME280;51875;49.994;14.052;2023-04-19T01:34:25;98806.34;;;10.32;100.00
65276;BME280;51875;49.994;14.052;2023-04-19T01:35:41;98802.81;;;10.35;100.00
65276;BME280;51875;49.994;14.052;2023-04-19T01:36:56;98804.59;;;10.35;100.00
65276;BME280;51875;49.994;14.052;2023-04-19T01:38:12;98802.59;;;10.48;100.00
65276;BME280;51875;49.994;14.052;2023-04-19T01:39:28;98803.81;;;10.29;100.00
65276;BME280;51875;49.994;14.052;2023-04-19T01:40:43;98803.16;;;10.20;100.00
65276;BME280;51875;49.994;14.052;2023-04-19T01:41:59;98798.56;;;10.29;100.00
65276;BME280;51875;49.994;14.052;2023-04-19T01:43:16;98789.50;;;10.48;100.00
65276;BME280;51875;49.994;14.052;2023-04-19T01:44:32;98787.78;;;10.47;100.00
65276;BME280;51875;49.994;14.052;2023-04-19T01:45:48;98792.69;;;10.18;100.00
65276;BME280;51875;49.994;14.052;2023-04-19T01:47:04;98792.00;;;10.10;100.00
65276;BME280;51875;49.994;14.052;2023-04-19T01:48:19;98796.91;;;10.27;100.00
65276;BME280;51875;49.994;14.052;2023-04-19T01:49:35;98793.50;;;10.22;100.00
65276;BME280;51875;49.994;14.052;2023-04-19T01:50:51;98789.97;;;10.24;100.00
65276;BME280;51875;49.994;14.052;2023-04-19T01:52:06;98784.41;;;10.40;100.00
65276;BME280;51875;49.994;14.052;2023-04-19T01:53:22;98789.97;;;10.24;100.00
65276;BME280;51875;49.994;14.052;2023-04-19T01:54:37;98794.75;;;10.48;100.00
65276;BME280;51875;49.994;14.052;2023-04-19T01:55:53;98786.09;;;10.44;100.00
65276;BME280;51875;49.994;14.052;2023-04-19T01:57:09;98782.44;;;10.51;100.00
65276;BME280;51875;49.994;14.052;2023-04-19T01:58:25;98780.91;;;10.42;100.00
65276;BME280;51875;49.994;14.052;2023-04-19T01:59:40;98782.34;;;10.13;100.00
65276;BME280;51875;49.994;14.052;2023-04-19T02:00:56;98782.22;;;10.18;100.00
65276;BME280;51875;49.994;14.052;2023-04-19T02:02:11;98778.72;;;10.19;100.00
65276;BME280;51875;49.994;14.052;2023-04-19T02:03:27;98779.34;;;10.32;100.00
65276;BME280;51875;49.994;14.052;2023-04-19T02:04:43;98778.84;;;10.55;100.00
65276;BME280;51875;49.994;14.052;2023-04-19T02:05:58;98782.22;;;10.20;100.00
65276;BME280;51875;49.994;14.052;2023-04-19T02:07:14;98772.63;;;10.20;100.00
65276;BME280;51875;49.994;14.052;2023-04-19T02:08:29;98772.41;;;10.29;100.00
65276;BME280;51875;49.994;14.052;2023-04-19T02:09:45;98774.53;;;10.12;100.00
65276;BME280;51875;49.994;14.052;2023-04-19T02:11:08;98769.53;;;10.43;100.00
65276;BME280;51875;49.994;14.052;2023-04-19T02:12:26;98768.69;;;10.40;100.00
65276;BME280;51875;49.994;14.052;2023-04-19T02:13:43;98769.44;;;10.48;100.00
65276;BME280;51875;49.994;14.052;2023-04-19T02:14:59;98764.63;;;10.26;100.00
65276;BME280;51875;49.994;14.052;2023-04-19T02:16:16;98764.72;;;10.22;100.00
65276;BME280;51875;49.994;14.052;2023-04-19T02:17:32;98771.59;;;10.26;100.00
65276;BME280;51875;49.994;14.052;2023-04-19T02:18:47;98773.31;;;10.28;100.00
65276;BME280;51875;49.994;14.052;2023-04-19T02:20:04;98761.13;;;10.27;100.00
65276;BME280;51875;49.994;14.052;2023-04-19T02:21:20;98766.09;;;10.40;100.00
65276;BME280;51875;49.994;14.052;2023-04-19T02:22:35;98763.41;;;10.43;100.00
65276;BME280;51875;49.994;14.052;2023-04-19T02:23:51;98758.03;;;10.08;100.00
65276;BME280;51875;49.994;14.052;2023-04-19T02:25:07;98760.22;;;10.28;100.00
65276;BME280;51875;49.994;14.052;2023-04-19T02:26:22;98764.97;;;10.09;100.00
65276;BME280;51875;49.994;14.052;2023-04-19T02:27:39;98763.41;;;10.43;100.00
65276;BME280;51875;49.994;14.052;2023-04-19T02:28:54;98759.38;;;10.28;100.00
65276;BME280;51875;49.994;14.052;2023-04-19T02:30:10;98759.16;;;10.37;100.00
65276;BME280;51875;49.994;14.052;2023-04-19T02:31:26;98764.63;;;10.26;100.00
65276;BME280;51875;49.994;14.052;2023-04-19T02:32:41;98759.97;;;10.42;100.00
65276;BME280;51875;49.994;14.052;2023-04-19T02:33:57;98756.44;;;10.43;100.00
65276;BME280;51875;49.994;14.052;2023-04-19T02:35:13;98754.75;;;9.98;100.00
65276;BME280;51875;49.994;14.052;2023-04-19T02:36:28;98754.13;;;10.28;100.00
65276;BME280;51875;49.994;14.052;2023-04-19T02:37:44;98756.28;;;10.09;100.00
65276;BME280;51875;49.994;14.052;2023-04-19T02:38:59;98745.59;;;10.20;100.00
65276;BME280;51875;49.994;14.052;2023-04-19T02:40:15;98747.28;;;10.22;100.00
65276;BME280;51875;49.994;14.052;2023-04-19T02:41:30;98743.94;;;10.15;100.00
65276;BME280;51875;49.994;14.052;2023-04-19T02:42:46;98748.72;;;9.95;100.00
65276;BME280;51875;49.994;14.052;2023-04-19T02:44:02;98750.25;;;10.48;100.00
65276;BME280;51875;49.994;14.052;2023-04-19T02:45:17;98752.94;;;10.44;100.00
65276;BME280;51875;49.994;14.052;2023-04-19T02:46:33;98749.16;;;10.15;100.00
65276;BME280;51875;49.994;14.052;2023-04-19T02:47:48;98745.97;;;10.01;100.00
65276;BME280;51875;49.994;14.052;2023-04-19T02:49:04;98757.28;;;10.03;100.00
65276;BME280;51875;49.994;14.052;2023-04-19T02:50:20;98746.19;;;9.90;100.00
65276;BME280;51875;49.994;14.052;2023-04-19T02:51:35;98750.63;;;10.29;100.00
65276;BME280;51875;49.994;14.052;2023-04-19T02:52:51;98741.72;;;10.38;100.00
65276;BME280;51875;49.994;14.052;2023-04-19T02:54:06;98733.81;;;10.41;100.00
65276;BME280;51875;49.994;14.052;2023-04-19T02:55:22;98743.38;;;10.43;100.00
65276;BME280;51875;49.994;14.052;2023-04-19T02:56:37;98737.91;;;10.10;100.00
65276;BME280;51875;49.994;14.052;2023-04-19T02:57:53;98738.56;;;10.22;100.00
65276;BME280;51875;49.994;14.052;2023-04-19T02:59:08;98739.22;;;10.31;100.00
65276;BME280;51875;49.994;14.052;2023-04-19T03:00:24;98744.56;;;10.27;100.00
65276;BME280;51875;49.994;14.052;2023-04-19T03:01:40;98739.84;;;10.44;100.00
65276;BME280;51875;49.994;14.052;2023-04-19T03:02:55;98732.72;;;10.50;100.00
65276;BME280;51875;49.994;14.052;2023-04-19T03:04:11;98732.91;;;10.42;100.00
65276;BME280;51875;49.994;14.052;2023-04-19T03:05:27;98731.66;;;10.58;100.00
65276;BME280;51875;49.994;14.052;2023-04-19T03:06:42;98732.91;;;10.42;100.00
65276;BME280;51875;49.994;14.052;2023-04-19T03:07:58;98730.28;;;10.42;100.00
65276;BME280;51875;49.994;14.052;2023-04-19T03:09:14;98727.25;;;10.60;100.00
65276;BME280;51875;49.994;14.052;2023-04-19T03:10:30;98730.50;;;10.31;100.00
65276;BME280;51875;49.994;14.052;2023-04-19T03:11:45;98725.78;;;10.49;100.00
65276;BME280;51875;49.994;14.052;2023-04-19T03:13:01;98720.78;;;10.38;100.00
65276;BME280;51875;49.994;14.052;2023-04-19T03:14:17;98722.44;;;10.40;100.00
65276;BME280;51875;49.994;14.052;2023-04-19T03:15:32;98716.31;;;10.43;100.00
65276;BME280;51875;49.994;14.052;2023-04-19T03:16:48;98716.44;;;10.35;100.00
65276;BME280;51875;49.994;14.052;2023-04-19T03:18:03;98708.69;;;10.30;100.00
65276;BME280;51875;49.994;14.052;2023-04-19T03:19:19;98718.28;;;10.31;100.00
65276;BME280;51875;49.994;14.052;2023-04-19T03:20:34;98714.56;;;10.43;100.00
65276;BME280;51875;49.994;14.052;2023-04-19T03:21:50;98712.19;;;10.31;100.00
65276;BME280;51875;49.994;14.052;2023-04-19T03:23:05;98710.25;;;10.39;100.00
65276;BME280;51875;49.994;14.052;2023-04-19T03:24:30;98714.72;;;10.34;100.00
65276;BME280;51875;49.994;14.052;2023-04-19T03:25:46;98709.41;;;10.39;100.00
65276;BME280;51875;49.994;14.052;2023-04-19T03:27:02;98707.44;;;10.50;100.00
65276;BME280;51875;49.994;14.052;2023-04-19T03:28:18;98699.78;;;10.39;100.00
65276;BME280;51875;49.994;14.052;2023-04-19T03:29:33;98704.72;;;10.14;100.00
65276;BME280;51875;49.994;14.052;2023-04-19T03:30:49;98698.47;;;10.20;100.00
65276;BME280;51875;49.994;14.052;2023-04-19T03:32:05;98705.25;;;10.28;100.00
65276;BME280;51875;49.994;14.052;2023-04-19T03:33:21;98700.28;;;10.17;100.00
65276;BME280;51875;49.994;14.052;2023-04-19T03:34:36;98692.69;;;10.07;100.00
65276;BME280;51875;49.994;14.052;2023-04-19T03:35:52;98701.28;;;10.10;100.00
65276;BME280;51875;49.994;14.052;2023-04-19T03:37:08;98700.19;;;10.21;100.00
65276;BME280;51875;49.994;14.052;2023-04-19T03:38:23;98692.19;;;10.28;100.00
65276;BME280;51875;49.994;14.052;2023-04-19T03:39:39;98695.88;;;10.18;100.00
65276;BME280;51875;49.994;14.052;2023-04-19T03:40:55;98689.75;;;10.21;100.00
65276;BME280;51875;49.994;14.052;2023-04-19T03:42:11;98684.44;;;10.24;100.00
65276;BME280;51875;49.994;14.052;2023-04-19T03:43:27;98688.38;;;10.43;100.00
65276;BME280;51875;49.994;14.052;2023-04-19T03:44:42;98690.06;;;10.46;100.00
65276;BME280;51875;49.994;14.052;2023-04-19T03:45:58;98685.94;;;10.36;100.00
65276;BME280;51875;49.994;14.052;2023-04-19T03:47:13;98689.75;;;10.21;100.00
65276;BME280;51875;49.994;14.052;2023-04-19T03:48:29;98691.53;;;10.18;100.00
65276;BME280;51875;49.994;14.052;2023-04-19T03:49:45;98692.50;;;10.14;100.00
65276;BME280;51875;49.994;14.052;2023-04-19T03:51:00;98686.16;;;10.25;100.00
65276;BME280;51875;49.994;14.052;2023-04-19T03:52:16;98681.63;;;10.31;100.00
65276;BME280;51875;49.994;14.052;2023-04-19T03:53:31;98687.03;;;10.25;100.00
65276;BME280;51875;49.994;14.052;2023-04-19T03:54:47;98683.50;;;10.26;100.00
65276;BME280;51875;49.994;14.052;2023-04-19T03:56:03;98681.03;;;10.20;100.00
65276;BME280;51875;49.994;14.052;2023-04-19T03:57:18;98688.91;;;10.18;100.00
65276;BME280;51875;49.994;14.052;2023-04-19T03:58:34;98681.69;;;10.30;100.00
65276;BME280;51875;49.994;14.052;2023-04-19T03:59:49;98678.88;;;9.98;100.00
65276;BME280;51875;49.994;14.052;2023-04-19T04:01:05;98676.81;;;10.14;100.00
65276;BME280;51875;49.994;14.052;2023-04-19T04:02:22;98676.47;;;10.28;100.00
65276;BME280;51875;49.994;14.052;2023-04-19T04:03:38;98680.69;;;10.36;100.00
65276;BME280;51875;49.994;14.052;2023-04-19T04:04:54;98679.00;;;10.33;100.00
65276;BME280;51875;49.994;14.052;2023-04-19T04:06:10;98682.34;;;10.38;100.00
65276;BME280;51875;49.994;14.052;2023-04-19T04:07:25;98673.97;;;10.24;100.00
65276;BME280;51875;49.994;14.052;2023-04-19T04:08:41;98680.78;;;9.92;100.00
65276;BME280;51875;49.994;14.052;2023-04-19T04:09:56;98678.13;;;10.32;100.00
65276;BME280;51875;49.994;14.052;2023-04-19T04:11:12;98676.38;;;10.33;100.00
65276;BME280;51875;49.994;14.052;2023-04-19T04:12:27;98673.84;;;10.28;100.00
65276;BME280;51875;49.994;14.052;2023-04-19T04:13:43;98673.75;;;10.33;100.00
65276;BME280;51875;49.994;14.052;2023-04-19T04:15:01;98673.75;;;10.33;100.00
65276;BME280;51875;49.994;14.052;2023-04-19T04:16:16;98680.00;;;10.27;100.00
65276;BME280;51875;49.994;14.052;2023-04-19T04:17:32;98676.56;;;10.24;100.00
65276;BME280;51875;49.994;14.052;2023-04-19T04:18:47;98673.84;;;10.30;100.00
65276;BME280;51875;49.994;14.052;2023-04-19T04:20:03;98672.97;;;10.29;100.00
65276;BME280;51875;49.994;14.052;2023-04-19T04:21:20;98685.66;;;10.09;100.00
65276;BME280;51875;49.994;14.052;2023-04-19T04:22:39;98682.31;;;10.00;100.00
65276;BME280;51875;49.994;14.052;2023-04-19T04:23:55;98678.44;;;10.20;100.00
65276;BME280;51875;49.994;14.052;2023-04-19T04:25:11;98675.75;;;10.22;100.00
65276;BME280;51875;49.994;14.052;2023-04-19T04:26:27;98680.34;;;10.12;100.00
65276;BME280;51875;49.994;14.052;2023-04-19T04:27:50;98675.31;;;10.42;100.00
65276;BME280;51875;49.994;14.052;2023-04-19T04:29:06;98671.41;;;9.81;100.00
65276;BME280;51875;49.994;14.052;2023-04-19T04:30:22;98672.75;;;10.01;100.00
65276;BME280;51875;49.994;14.052;2023-04-19T04:31:38;98666.09;;;10.25;100.00
65276;BME280;51875;49.994;14.052;2023-04-19T04:32:54;98669.31;;;10.37;100.00
65276;BME280;51875;49.994;14.052;2023-04-19T04:34:12;98667.81;;;10.26;100.00
65276;BME280;51875;49.994;14.052;2023-04-19T04:35:28;98672.63;;;10.06;100.00
65276;BME280;51875;49.994;14.052;2023-04-19T04:36:45;98673.63;;;10.00;100.00
65276;BME280;51875;49.994;14.052;2023-04-19T04:38:01;98673.31;;;10.14;100.00
65276;BME280;51875;49.994;14.052;2023-04-19T04:39:17;98671.03;;;10.00;100.00
65276;BME280;51875;49.994;14.052;2023-04-19T04:40:33;98669.22;;;10.02;100.00
65276;BME280;51875;49.994;14.052;2023-04-19T04:41:48;98665.09;;;9.90;100.00
65276;BME280;51875;49.994;14.052;2023-04-19T04:43:06;98664.91;;;10.01;100.00
65276;BME280;51875;49.994;14.052;2023-04-19T04:44:23;98664.44;;;9.82;100.00
65276;BME280;51875;49.994;14.052;2023-04-19T04:45:38;98663.13;;;9.59;100.00
65276;BME280;51875;49.994;14.052;2023-04-19T04:46:54;98659.84;;;9.93;100.00
65276;BME280;51875;49.994;14.052;2023-04-19T04:48:09;98655.81;;;9.77;100.00
65276;BME280;51875;49.994;14.052;2023-04-19T04:49:25;98662.81;;;9.76;100.00
65276;BME280;51875;49.994;14.052;2023-04-19T04:50:41;98658.16;;;9.89;100.00
65276;BME280;51875;49.994;14.052;2023-04-19T04:51:56;98663.66;;;9.77;100.00
65276;BME280;51875;49.994;14.052;2023-04-19T04:53:12;98662.00;;;9.72;100.00
65276;BME280;51875;49.994;14.052;2023-04-19T04:54:28;98654.47;;;9.98;100.00
65276;BME280;51875;49.994;14.052;2023-04-19T04:55:44;98654.59;;;9.93;100.00
65276;BME280;51875;49.994;14.052;2023-04-19T04:56:59;98661.97;;;9.74;100.00
65276;BME280;51875;49.994;14.052;2023-04-19T04:58:15;98658.38;;;9.80;100.00
65276;BME280;51875;49.994;14.052;2023-04-19T04:59:31;98653.16;;;9.80;100.00
65276;BME280;51875;49.994;14.052;2023-04-19T05:00:46;98654.44;;;9.99;100.00
65276;BME280;51875;49.994;14.052;2023-04-19T05:02:03;98649.03;;;10.09;100.00
65276;BME280;51875;49.994;14.052;2023-04-19T05:03:18;98650.56;;;10.17;100.00
65276;BME280;51875;49.994;14.052;2023-04-19T05:04:34;98652.63;;;10.03;100.00
65276;BME280;51875;49.994;14.052;2023-04-19T05:05:50;98647.59;;;10.33;100.00
65276;BME280;51875;49.994;14.052;2023-04-19T05:07:05;98654.03;;;10.18;100.00
65276;BME280;51875;49.994;14.052;2023-04-19T05:08:21;98645.91;;;10.30;100.00
65276;BME280;51875;49.994;14.052;2023-04-19T05:09:36;98648.13;;;10.10;100.00
65276;BME280;51875;49.994;14.052;2023-04-19T05:10:52;98643.75;;;10.10;100.00
65276;BME280;51875;49.994;14.052;2023-04-19T05:12:07;98647.94;;;10.17;100.00
65276;BME280;51875;49.994;14.052;2023-04-19T05:13:23;98641.19;;;10.09;100.00
65276;BME280;51875;49.994;14.052;2023-04-19T05:14:39;98647.66;;;9.92;100.00
65276;BME280;51875;49.994;14.052;2023-04-19T05:15:54;98645.22;;;9.83;100.00
65276;BME280;51875;49.994;14.052;2023-04-19T05:17:10;98643.84;;;10.06;100.00
65276;BME280;51875;49.994;14.052;2023-04-19T05:18:25;98652.91;;;9.91;100.00
65276;BME280;51875;49.994;14.052;2023-04-19T05:19:41;98643.47;;;9.83;100.00
65276;BME280;51875;49.994;14.052;2023-04-19T05:20:56;98650.28;;;9.91;100.00
65276;BME280;51875;49.994;14.052;2023-04-19T05:22:12;98639.31;;;10.12;100.00
65276;BME280;51875;49.994;14.052;2023-04-19T05:23:28;98642.72;;;10.17;100.00
65276;BME280;51875;49.994;14.052;2023-04-19T05:24:43;98644.00;;;9.98;100.00
65276;BME280;51875;49.994;14.052;2023-04-19T05:25:59;98638.03;;;9.93;100.00
65276;BME280;51875;49.994;14.052;2023-04-19T05:27:15;98638.59;;;10.06;100.00
65276;BME280;51875;49.994;14.052;2023-04-19T05:28:30;98641.22;;;10.06;100.00
65276;BME280;51875;49.994;14.052;2023-04-19T05:29:46;98641.53;;;9.93;100.00
65276;BME280;51875;49.994;14.052;2023-04-19T05:31:01;98642.09;;;10.06;100.00
65276;BME280;51875;49.994;14.052;2023-04-19T05:32:17;98646.19;;;9.79;100.00
65276;BME280;51875;49.994;14.052;2023-04-19T05:33:33;98642.56;;;9.84;100.00
65276;BME280;51875;49.994;14.052;2023-04-19T05:34:49;98638.19;;;9.86;100.00
65276;BME280;51875;49.994;14.052;2023-04-19T05:36:04;98629.38;;;9.91;100.00
65276;BME280;51875;49.994;14.052;2023-04-19T05:37:21;98633.06;;;9.82;100.00
65276;BME280;51875;49.994;14.052;2023-04-19T05:38:38;98633.44;;;10.04;100.00
65276;BME280;51875;49.994;14.052;2023-04-19T05:39:53;98632.72;;;9.97;100.00
65276;BME280;51875;49.994;14.052;2023-04-19T05:41:09;98634.72;;;9.84;100.00
65276;BME280;51875;49.994;14.052;2023-04-19T05:42:25;98634.72;;;9.84;100.00
65276;BME280;51875;49.994;14.052;2023-04-19T05:43:41;98630.94;;;9.98;100.00
65276;BME280;51875;49.994;14.052;2023-04-19T05:44:57;98630.56;;;10.15;100.00
65276;BME280;51875;49.994;14.052;2023-04-19T05:46:13;98635.56;;;9.86;100.00
65276;BME280;51875;49.994;14.052;2023-04-19T05:47:28;98638.00;;;9.94;100.00
65276;BME280;51875;49.994;14.052;2023-04-19T05:48:44;98630.72;;;10.07;100.00
65276;BME280;51875;49.994;14.052;2023-04-19T05:50:01;98627.75;;;9.85;100.00
65276;BME280;51875;49.994;14.052;2023-04-19T05:51:16;98633.06;;;9.82;100.00
65276;BME280;51875;49.994;14.052;2023-04-19T05:52:33;98635.50;;;9.47;100.00
65276;BME280;51875;49.994;14.052;2023-04-19T05:53:48;98646.31;;;9.72;100.00
65276;BME280;51875;49.994;14.052;2023-04-19T05:55:04;98647.28;;;9.67;100.00
65276;BME280;51875;49.994;14.052;2023-04-19T05:56:20;98646.28;;;9.74;100.00
65276;BME280;51875;49.994;14.052;2023-04-19T05:57:35;98639.91;;;9.86;100.00
65276;BME280;51875;49.994;14.052;2023-04-19T05:58:51;98640.97;;;9.79;100.00
65276;BME280;51875;49.994;14.052;2023-04-19T06:00:07;98643.63;;;9.75;100.00
65276;BME280;51875;49.994;14.052;2023-04-19T06:01:23;98648.50;;;9.93;100.00
65276;BME280;51875;49.994;14.052;2023-04-19T06:02:39;98639.75;;;9.53;100.00
65276;BME280;51875;49.994;14.052;2023-04-19T06:03:56;98643.00;;;9.64;100.00
65276;BME280;51875;49.994;14.052;2023-04-19T06:05:11;98645.34;;;9.34;100.00
65276;BME280;51875;49.994;14.052;2023-04-19T06:06:27;98637.81;;;9.61;100.00
65276;BME280;51875;49.994;14.052;2023-04-19T06:07:42;98643.88;;;9.63;100.00
65276;BME280;51875;49.994;14.052;2023-04-19T06:08:58;98642.72;;;9.78;100.00
65276;BME280;51875;49.994;14.052;2023-04-19T06:10:13;98643.41;;;9.86;100.00
65276;BME280;51875;49.994;14.052;2023-04-19T06:11:29;98643.69;;;9.74;100.00
65276;BME280;51875;49.994;14.052;2023-04-19T06:12:45;98641.66;;;9.44;100.00
65276;BME280;51875;49.994;14.052;2023-04-19T06:14:00;98648.00;;;9.75;100.00
65276;BME280;51875;49.994;14.052;2023-04-19T06:15:16;98638.31;;;9.38;100.00
65276;BME280;51875;49.994;14.052;2023-04-19T06:16:31;98646.78;;;9.51;100.00
65276;BME280;51875;49.994;14.052;2023-04-19T06:17:47;98647.44;;;9.15;100.00
65276;BME280;51875;49.994;14.052;2023-04-19T06:19:03;98650.59;;;9.32;100.00
65276;BME280;51875;49.994;14.052;2023-04-19T06:20:18;98649.00;;;9.69;100.00
65276;BME280;51875;49.994;14.052;2023-04-19T06:21:33;98650.31;;;9.46;100.00
65276;BME280;51875;49.994;14.052;2023-04-19T06:22:49;98653.53;;;9.17;100.00
65276;BME280;51875;49.994;14.052;2023-04-19T06:24:07;98651.03;;;9.55;100.00
65276;BME280;51875;49.994;14.052;2023-04-19T06:25:23;98646.88;;;9.46;100.00
65276;BME280;51875;49.994;14.052;2023-04-19T06:26:39;98650.47;;;9.39;100.00
65276;BME280;51875;49.994;14.052;2023-04-19T06:27:54;98648.84;;;9.33;100.00
65276;BME280;51875;49.994;14.052;2023-04-19T06:29:10;98655.91;;;9.28;100.00
65276;BME280;51875;49.994;14.052;2023-04-19T06:30:26;98649.13;;;9.19;100.00
65276;BME280;51875;49.994;14.052;2023-04-19T06:31:41;98667.03;;;9.38;100.00
65276;BME280;51875;49.994;14.052;2023-04-19T06:32:57;98657.56;;;9.33;100.00